Islip, NY (11751)

2:08 AM EST on February 23, 2017 (GMT -0500)
South Saxon | | Change Station
Active Advisory: Dense Fog Advisory

Elev 20 ft 40.72 °N, 73.22 °W | Updated 14 seconds ago

Mostly Cloudy
Mostly Cloudy
40.3 °F
Feels Like 40 °F
N
0.0
Wind Variable Wind from East
Gusts 0.0 mph

Today
High -- | Low -- °F
--% Chance of Precip.
Yesterday
High -- | Low -- °F
Precip. -- in
Pressure 29.89 in
Visibility 0.2 miles
Clouds
Windchill 40 °F
Dew Point 34 °F
Humidity 77%
Rainfall 0.00 in
Snow Depth Not available.
6:35 AM 5:37 PM
Waning Crescent, 12% visible
SPECI KISP 230507Z AUTO 23003KT 1/4SM R06/1800V2400FT FG VV002 05/05 A2989 RMK AO2 T00500050 $
Pressure 29.89 in
Visibility 0.2 miles
Clouds
Windchill 40 °F
Dew Point 34 °F
Humidity 77%
Rainfall 0.00 in
Snow Depth Not available.
6:35 AM 5:37 PM
Waning Crescent, 12% visible
SPECI KISP 230507Z AUTO 23003KT 1/4SM R06/1800V2400FT FG VV002 05/05 A2989 RMK AO2 T00500050 $

Get Your Daily Forecast Email!

Thanks for signing up!

Be on the lookout for a verification email in your inbox.

You'll start receiving the daily forecast at 8 AM.

×

10-Day Weather Forecast

Almanac

Astronomy

Feb. 23, 2017 Rise Set
Actual Time
Civil Twilight
Nautical Twilight
Astronomical Twilight
Moon
Length of Visible Light
Length of Day
Tomorrow will be .
, % of the Moon is Illuminated

Today's Extremes

State Highs State Lows

Community

WunderPhotos

Upload Photos

1,962,540 photos uploaded!

WunderBlog® & News

Nearby

Air Quality

  Air Quality AQ Index Pollutant
Not available.

Snow Depth

Station Depth Elevation

Earthquake Activity

City Distance Mag. Time & Date
Minimum magnitude displayed is 2.5.

Coastal Water Temperatures

Place Temperature

Stations

Nearby Weather Stations

Station Location Temp. Windchill Dew Point Humidity Wind Precip. Elev Updated Type
                   

Watches & Warnings

Dense Fog Advisory
Issued: 11:56 PM EST Feb. 22, 2017 – National Weather Service

... Dense fog advisory remains in effect until 10 am EST
Thursday...

* visibilities... one quarter mile or less at times.

* Timing... into Thursday morning.

* Impacts... limited visibilities will make travel difficult.

Precautionary/preparedness actions...

A dense fog advisory means visibilities will frequently be
reduced to one quarter mile or less. If driving... slow down... use
your low beam headlights... and leave plenty of distance ahead of
you in case a sudden stop is needed.